Time;durP1;ratioP1;P1;durP2;ratioP2;P2;SDS_P1;SDS_P2;PMS_P1;PMS_P2;Temp;Humidity;BMP_temperature;BMP_pressure;BME280_temperature;BME280_humidity;BME280_pressure;Samples;Min_cycle;Max_cycle;Signal;HPM_P1;HPM_P2
2023/07/08 00:00:22;;;;;;;7.85;6.05;;;;;;;;;;8338339;28;20112;-61
2023/07/08 00:04:23;;;;;;;8.13;6.05;;;;;;;;;;8337393;28;20116;-61
2023/07/08 00:08:23;;;;;;;9.63;6.37;;;;;;;;;;8336805;28;20039;-61
2023/07/08 00:12:23;;;;;;;11.15;6.40;;;;;;;;;;8335669;28;21456;-61
2023/07/08 00:16:23;;;;;;;9.70;6.40;;;;;;;;;;8336122;28;20044;-61
2023/07/08 00:20:34;;;;;;;8.05;5.65;;;;;;;;;;8336081;28;20607;-61
2023/07/08 00:24:34;;;;;;;9.55;6.30;;;;;;;;;;8322958;28;20765;-62
2023/07/08 00:28:34;;;;;;;8.38;5.90;;;;;;;;;;8336225;28;20063;-61
2023/07/08 00:32:41;;;;;;;8.55;6.00;;;;;;;;;;8334402;28;20869;-62
2023/07/08 00:36:41;;;;;;;11.82;6.20;;;;;;;;;;8336169;28;20032;-62
2023/07/08 00:40:52;;;;;;;8.82;6.32;;;;;;;;;;8334785;28;20017;-62
2023/07/08 00:44:52;;;;;;;8.55;6.00;;;;;;;;;;8335400;28;20647;-62
2023/07/08 00:48:56;;;;;;;8.95;5.97;;;;;;;;;;8334432;28;20615;-61
2023/07/08 00:53:21;;;;;;;10.45;6.20;;;;;;;;;;8335748;28;20047;-61
2023/07/08 00:57:23;;;;;;;10.15;5.90;;;;;;;;;;8334127;28;20033;-61
2023/07/08 01:01:23;;;;;;;8.85;6.43;;;;;;;;;;8334916;28;20049;-61
2023/07/08 01:05:25;;;;;;;10.63;5.90;;;;;;;;;;8332229;28;20335;-61
2023/07/08 01:09:28;;;;;;;9.02;5.78;;;;;;;;;;8333472;28;20021;-62
2023/07/08 01:13:31;;;;;;;8.85;6.18;;;;;;;;;;8336206;28;20126;-61
2023/07/08 01:17:32;;;;;;;6.95;5.95;;;;;;;;;;8331831;28;20052;-61
2023/07/08 01:21:34;;;;;;;6.82;5.50;;;;;;;;;;8337126;28;20040;-61
2023/07/08 01:25:34;;;;;;;9.10;5.70;;;;;;;;;;8337648;28;20841;-61
2023/07/08 01:29:35;;;;;;;6.85;6.07;;;;;;;;;;8340938;28;20634;-61
2023/07/08 01:33:35;;;;;;;7.53;5.78;;;;;;;;;;8337421;28;20040;-61
2023/07/08 01:37:56;;;;;;;7.13;5.35;;;;;;;;;;8340000;28;20029;-61
2023/07/08 01:41:57;;;;;;;7.75;5.88;;;;;;;;;;8340388;28;20028;-62
2023/07/08 01:46:00;;;;;;;8.05;5.78;;;;;;;;;;8330394;28;20056;-61
2023/07/08 01:50:01;;;;;;;10.23;5.60;;;;;;;;;;8340357;28;20051;-61
2023/07/08 01:54:01;;;;;;;9.90;6.47;;;;;;;;;;8339409;28;20036;-61
2023/07/08 01:58:01;;;;;;;9.23;5.75;;;;;;;;;;8340086;28;20053;-61
2023/07/08 02:02:01;;;;;;;6.15;5.07;;;;;;;;;;8338197;28;20149;-62
2023/07/08 02:06:02;;;;;;;6.63;5.45;;;;;;;;;;8339938;28;20029;-61
2023/07/08 02:10:02;;;;;;;8.07;5.22;;;;;;;;;;8326578;28;20039;-61
2023/07/08 02:14:03;;;;;;;7.17;5.40;;;;;;;;;;8339654;28;20032;-61
2023/07/08 02:18:04;;;;;;;7.22;5.55;;;;;;;;;;8338884;28;20574;-61
2023/07/08 02:22:04;;;;;;;7.88;5.95;;;;;;;;;;8338613;28;20974;-61
2023/07/08 02:26:04;;;;;;;10.85;6.25;;;;;;;;;;8338686;28;20118;-61
2023/07/08 02:30:06;;;;;;;9.05;5.80;;;;;;;;;;8336499;28;20151;-61
2023/07/08 02:34:06;;;;;;;8.20;5.53;;;;;;;;;;8334337;28;20067;-61
2023/07/08 02:38:06;;;;;;;13.85;5.82;;;;;;;;;;8336527;28;20037;-61
2023/07/08 02:42:06;;;;;;;8.35;6.40;;;;;;;;;;8339950;28;20035;-61
2023/07/08 02:46:07;;;;;;;7.85;5.53;;;;;;;;;;8336238;28;20041;-61
2023/07/08 02:50:08;;;;;;;7.82;6.43;;;;;;;;;;8336827;28;20454;-61
2023/07/08 02:54:09;;;;;;;6.88;5.50;;;;;;;;;;8337194;28;20074;-61
2023/07/08 02:58:09;;;;;;;7.60;5.70;;;;;;;;;;8337164;28;20062;-61
2023/07/08 03:02:09;;;;;;;7.43;5.57;;;;;;;;;;8335989;28;20036;-61
2023/07/08 03:06:10;;;;;;;7.35;5.45;;;;;;;;;;8334932;28;20485;-61
2023/07/08 03:10:10;;;;;;;7.00;4.88;;;;;;;;;;8335331;28;21008;-62
2023/07/08 03:14:11;;;;;;;6.73;5.50;;;;;;;;;;8338588;28;20995;-62
2023/07/08 03:18:11;;;;;;;7.70;5.70;;;;;;;;;;8338874;28;20290;-61
2023/07/08 03:22:11;;;;;;;7.57;5.80;;;;;;;;;;8337872;28;20028;-61
2023/07/08 03:26:15;;;;;;;7.53;5.60;;;;;;;;;;8338556;28;20024;-61
2023/07/08 03:30:15;;;;;;;7.97;5.10;;;;;;;;;;8328426;28;20040;-61
2023/07/08 03:34:17;;;;;;;10.87;6.17;;;;;;;;;;8338420;28;20052;-62
2023/07/08 03:38:17;;;;;;;9.88;5.68;;;;;;;;;;8336504;28;20020;-61
2023/07/08 03:42:17;;;;;;;7.00;5.82;;;;;;;;;;8335143;28;20036;-62
2023/07/08 03:46:18;;;;;;;6.80;5.65;;;;;;;;;;8336668;28;20036;-61
2023/07/08 03:50:20;;;;;;;7.18;5.57;;;;;;;;;;8336327;28;20502;-62
2023/07/08 03:54:21;;;;;;;6.38;5.45;;;;;;;;;;8336212;28;20029;-61
2023/07/08 03:58:21;;;;;;;7.50;5.80;;;;;;;;;;8336564;28;20036;-61
2023/07/08 04:02:22;;;;;;;8.07;5.78;;;;;;;;;;8337407;28;20032;-61
2023/07/08 04:06:22;;;;;;;8.30;5.55;;;;;;;;;;8334291;28;20021;-61
2023/07/08 04:10:23;;;;;;;7.03;5.47;;;;;;;;;;8337323;28;20127;-62
2023/07/08 04:14:23;;;;;;;7.00;5.65;;;;;;;;;;8336569;28;20864;-62
2023/07/08 04:18:23;;;;;;;6.67;5.10;;;;;;;;;;8334032;28;20677;-62
2023/07/08 04:22:24;;;;;;;7.07;5.13;;;;;;;;;;8332470;28;20639;-62
2023/07/08 04:26:24;;;;;;;8.15;5.65;;;;;;;;;;8334569;28;20024;-62
2023/07/08 04:30:25;;;;;;;6.33;5.43;;;;;;;;;;8334732;28;20033;-62
2023/07/08 04:34:25;;;;;;;7.78;5.63;;;;;;;;;;8335853;28;20056;-61
2023/07/08 04:38:26;;;;;;;6.70;5.20;;;;;;;;;;8334086;28;20036;-61
2023/07/08 04:42:28;;;;;;;8.50;4.97;;;;;;;;;;8335883;28;20034;-62
2023/07/08 04:46:28;;;;;;;6.70;5.57;;;;;;;;;;8331728;28;20097;-62
2023/07/08 04:50:29;;;;;;;8.70;5.38;;;;;;;;;;8329697;28;20509;-61
2023/07/08 04:54:29;;;;;;;5.90;5.15;;;;;;;;;;8334321;28;20025;-61
2023/07/08 04:58:29;;;;;;;7.00;5.37;;;;;;;;;;8339867;28;20025;-62
2023/07/08 05:02:30;;;;;;;13.82;5.70;;;;;;;;;;8340622;28;20277;-61
2023/07/08 05:06:32;;;;;;;6.60;5.38;;;;;;;;;;8338414;28;20151;-61
2023/07/08 05:10:32;;;;;;;6.57;5.18;;;;;;;;;;8328086;28;20071;-62
2023/07/08 05:14:32;;;;;;;8.23;5.53;;;;;;;;;;8341309;28;20056;-61
2023/07/08 05:18:32;;;;;;;7.82;5.72;;;;;;;;;;8337137;28;20131;-61
2023/07/08 05:22:33;;;;;;;10.48;5.07;;;;;;;;;;8336524;28;20032;-61
2023/07/08 05:26:33;;;;;;;8.35;5.28;;;;;;;;;;8340332;28;20021;-62
2023/07/08 05:30:34;;;;;;;11.40;5.50;;;;;;;;;;8337740;28;20647;-61
2023/07/08 05:34:34;;;;;;;6.82;5.15;;;;;;;;;;8335111;28;20027;-61
2023/07/08 05:38:35;;;;;;;6.20;5.05;;;;;;;;;;8331544;28;20431;-61
2023/07/08 05:42:35;;;;;;;7.60;5.07;;;;;;;;;;8339444;28;20097;-61
2023/07/08 05:46:35;;;;;;;7.75;5.55;;;;;;;;;;8335154;28;20215;-61
2023/07/08 05:50:35;;;;;;;9.82;5.65;;;;;;;;;;8337847;28;20020;-61
2023/07/08 05:54:40;;;;;;;7.90;6.07;;;;;;;;;;8332615;28;20040;-61
2023/07/08 05:58:40;;;;;;;6.95;5.38;;;;;;;;;;8325160;28;20028;-62
2023/07/08 06:02:40;;;;;;;10.53;6.07;;;;;;;;;;8334696;28;20768;-61
2023/07/08 06:06:41;;;;;;;8.63;5.68;;;;;;;;;;8335496;28;20031;-62
2023/07/08 06:10:41;;;;;;;7.25;5.47;;;;;;;;;;8337794;28;20052;-61
2023/07/08 06:14:42;;;;;;;7.63;5.60;;;;;;;;;;8342246;28;20981;-61
2023/07/08 06:18:42;;;;;;;6.72;5.65;;;;;;;;;;8328315;28;20123;-61
2023/07/08 06:22:42;;;;;;;10.27;6.22;;;;;;;;;;8332377;28;20025;-61
2023/07/08 06:26:43;;;;;;;6.97;5.53;;;;;;;;;;8327758;28;20533;-61
2023/07/08 06:30:43;;;;;;;7.20;5.95;;;;;;;;;;8323298;28;20051;-61
2023/07/08 06:34:43;;;;;;;11.90;5.70;;;;;;;;;;8328436;28;20209;-61
2023/07/08 06:38:44;;;;;;;8.48;6.07;;;;;;;;;;8326819;28;20135;-61
2023/07/08 06:42:44;;;;;;;8.73;5.85;;;;;;;;;;8329719;28;20044;-61
2023/07/08 06:46:44;;;;;;;7.90;5.60;;;;;;;;;;8325626;28;20060;-63
2023/07/08 06:50:47;;;;;;;7.20;5.38;;;;;;;;;;8327534;28;20051;-62
2023/07/08 06:54:48;;;;;;;7.68;5.70;;;;;;;;;;8335652;28;20038;-61
2023/07/08 06:58:48;;;;;;;8.75;5.93;;;;;;;;;;8333300;28;20083;-63
2023/07/08 07:02:48;;;;;;;6.82;5.63;;;;;;;;;;8333454;28;20029;-62
2023/07/08 07:06:49;;;;;;;6.93;5.70;;;;;;;;;;8336657;28;20052;-62
2023/07/08 07:10:49;;;;;;;8.90;5.53;;;;;;;;;;8333451;28;20081;-61
2023/07/08 07:14:52;;;;;;;6.60;5.30;;;;;;;;;;8334938;28;20039;-62
2023/07/08 07:18:52;;;;;;;9.93;5.50;;;;;;;;;;8334355;28;20090;-61
2023/07/08 07:22:53;;;;;;;7.33;4.97;;;;;;;;;;8332938;28;20020;-62
2023/07/08 07:26:53;;;;;;;7.35;5.28;;;;;;;;;;8332845;28;20033;-62
2023/07/08 07:30:57;;;;;;;8.20;5.50;;;;;;;;;;8334646;28;20147;-62
2023/07/08 07:34:59;;;;;;;6.13;4.72;;;;;;;;;;8332179;28;20063;-62
2023/07/08 07:38:59;;;;;;;7.20;4.73;;;;;;;;;;8337022;28;20028;-61
2023/07/08 07:42:59;;;;;;;8.57;5.30;;;;;;;;;;8334441;28;20012;-62
2023/07/08 07:46:59;;;;;;;6.95;4.93;;;;;;;;;;8331871;28;20807;-61
2023/07/08 07:51:00;;;;;;;6.35;5.57;;;;;;;;;;8324533;28;20086;-61
2023/07/08 07:55:00;;;;;;;6.32;5.15;;;;;;;;;;8325595;28;20036;-61
2023/07/08 07:59:01;;;;;;;6.72;5.20;;;;;;;;;;8333688;28;20377;-61
2023/07/08 08:03:01;;;;;;;7.53;5.13;;;;;;;;;;8310466;28;20032;-61
2023/07/08 08:07:01;;;;;;;8.45;5.80;;;;;;;;;;8325269;28;20626;-62
2023/07/08 08:11:01;;;;;;;5.70;5.10;;;;;;;;;;8325978;28;20020;-62
2023/07/08 08:15:01;;;;;;;5.75;5.18;;;;;;;;;;8329027;28;20035;-62
2023/07/08 08:19:02;;;;;;;7.20;5.30;;;;;;;;;;8326343;28;20055;-62
2023/07/08 08:23:02;;;;;;;6.65;5.25;;;;;;;;;;8332155;28;20108;-62
2023/07/08 08:27:02;;;;;;;6.80;5.20;;;;;;;;;;8323865;28;20089;-62
2023/07/08 08:31:02;;;;;;;7.40;5.23;;;;;;;;;;8329214;28;20139;-62
2023/07/08 08:35:04;;;;;;;7.07;5.13;;;;;;;;;;8335409;28;20178;-62
2023/07/08 08:39:04;;;;;;;6.85;4.97;;;;;;;;;;8340781;28;20051;-62
2023/07/08 08:43:06;;;;;;;7.30;5.30;;;;;;;;;;8334404;28;20112;-62
2023/07/08 08:47:23;;;;;;;10.95;5.43;;;;;;;;;;8328904;28;20342;-61
2023/07/08 08:51:25;;;;;;;6.15;5.25;;;;;;;;;;8331706;28;20473;-62
2023/07/08 08:55:25;;;;;;;5.93;5.15;;;;;;;;;;8332091;28;20035;-62
2023/07/08 08:59:46;;;;;;;7.13;5.07;;;;;;;;;;8333900;28;22100;-62
2023/07/08 09:03:46;;;;;;;8.80;5.30;;;;;;;;;;8332030;28;20093;-63
2023/07/08 09:07:49;;;;;;;5.25;4.68;;;;;;;;;;8331621;28;20048;-63
2023/07/08 09:11:57;;;;;;;5.82;5.15;;;;;;;;;;8331947;28;20150;-63
2023/07/08 09:16:09;;;;;;;6.57;4.65;;;;;;;;;;8319451;28;20958;-63
2023/07/08 09:20:12;;;;;;;6.13;4.70;;;;;;;;;;8331232;28;20119;-62
2023/07/08 09:24:18;;;;;;;7.53;5.07;;;;;;;;;;8333786;28;20099;-62
2023/07/08 09:28:19;;;;;;;5.35;4.55;;;;;;;;;;8334229;28;20350;-63
2023/07/08 09:32:19;;;;;;;6.97;4.65;;;;;;;;;;8335748;28;20048;-62
2023/07/08 09:36:23;;;;;;;7.00;4.82;;;;;;;;;;8334960;28;20055;-61
2023/07/08 09:40:23;;;;;;;5.60;4.65;;;;;;;;;;8338290;28;20443;-62
2023/07/08 09:44:26;;;;;;;8.83;5.27;;;;;;;;;;8340377;28;20334;-61
2023/07/08 09:48:44;;;;;;;6.93;5.18;;;;;;;;;;8319355;28;20048;-61
2023/07/08 09:52:45;;;;;;;6.30;5.03;;;;;;;;;;8338054;28;20035;-61
2023/07/08 09:56:50;;;;;;;6.15;5.18;;;;;;;;;;8334859;28;20028;-61
2023/07/08 10:00:54;;;;;;;8.43;5.30;;;;;;;;;;8339410;28;20120;-61
2023/07/08 10:04:56;;;;;;;5.85;5.13;;;;;;;;;;8336731;28;20028;-61
2023/07/08 10:08:56;;;;;;;;;;;;;;;;;;8338361;28;20071;-61
2023/07/08 10:13:03;;;;;;;7.97;5.15;;;;;;;;;;8338977;28;19916;-61
2023/07/08 10:17:04;;;;;;;10.48;5.55;;;;;;;;;;8337050;28;20040;-61
2023/07/08 10:21:19;;;;;;;7.00;5.50;;;;;;;;;;8335581;28;20821;-61
2023/07/08 10:25:31;;;;;;;6.38;5.13;;;;;;;;;;8338203;28;20039;-62
2023/07/08 10:29:36;;;;;;;7.10;5.20;;;;;;;;;;8319265;28;20028;-62
2023/07/08 10:33:48;;;;;;;8.00;5.20;;;;;;;;;;8332334;28;20824;-61
2023/07/08 10:37:51;;;;;;;8.02;5.18;;;;;;;;;;8333917;28;20039;-61
2023/07/08 10:41:51;;;;;;;8.55;5.25;;;;;;;;;;8330733;28;20020;-61
2023/07/08 10:45:52;;;;;;;6.13;5.15;;;;;;;;;;8334034;28;20433;-61
2023/07/08 10:49:52;;;;;;;6.43;4.90;;;;;;;;;;8335594;28;20024;-61
2023/07/08 10:54:24;;;;;;;8.63;4.68;;;;;;;;;;8333342;28;20024;-61
2023/07/08 10:58:36;;;;;;;6.20;5.05;;;;;;;;;;8333113;28;20031;-61
2023/07/08 11:02:36;;;;;;;7.20;5.30;;;;;;;;;;8332023;28;20033;-61
2023/07/08 11:06:48;;;;;;;6.45;4.95;;;;;;;;;;8332786;28;20663;-62
2023/07/08 11:10:58;;;;;;;8.77;4.90;;;;;;;;;;8332598;28;20013;-61
2023/07/08 11:15:17;;;;;;;8.00;4.93;;;;;;;;;;8334082;28;20024;-61
2023/07/08 11:19:26;;;;;;;6.70;4.80;;;;;;;;;;8333767;28;20043;-61
2023/07/08 11:23:31;;;;;;;5.05;4.50;;;;;;;;;;8333618;28;20020;-62
2023/07/08 11:27:37;;;;;;;7.43;4.47;;;;;;;;;;8322426;28;20104;-61
2023/07/08 11:31:38;;;;;;;7.28;4.95;;;;;;;;;;8332998;28;20062;-61
2023/07/08 11:35:41;;;;;;;10.27;5.28;;;;;;;;;;8331028;28;20024;-62
2023/07/08 11:39:43;;;;;;;6.03;4.63;;;;;;;;;;8332392;28;20569;-61
2023/07/08 11:43:48;;;;;;;6.85;4.57;;;;;;;;;;8333614;28;20083;-61
2023/07/08 11:47:49;;;;;;;7.72;4.60;;;;;;;;;;8331849;28;20068;-61
2023/07/08 11:51:49;;;;;;;;;;;;;;;;;;8331827;28;20033;-66
2023/07/08 11:55:56;;;;;;;5.50;4.82;;;;;;;;;;8330193;28;20786;-62
2023/07/08 12:00:13;;;;;;;8.38;4.85;;;;;;;;;;8330395;28;20029;-61
2023/07/08 12:04:24;;;;;;;6.95;4.97;;;;;;;;;;8333464;28;20095;-61
2023/07/08 12:08:32;;;;;;;9.38;5.13;;;;;;;;;;8331020;28;20118;-61
2023/07/08 12:12:36;;;;;;;6.97;4.93;;;;;;;;;;8332430;28;20063;-62
2023/07/08 12:16:36;;;;;;;6.25;4.90;;;;;;;;;;8327573;28;20033;-61
2023/07/08 12:20:38;;;;;;;6.95;5.05;;;;;;;;;;8332341;28;20032;-61
2023/07/08 12:24:39;;;;;;;7.10;4.45;;;;;;;;;;8330382;28;20086;-61
2023/07/08 12:28:40;;;;;;;;;;;;;;;;;;8328321;28;20126;-61
2023/07/08 12:32:40;;;;;;;7.03;4.70;;;;;;;;;;8329100;28;20422;-61
2023/07/08 12:36:42;;;;;;;6.20;4.28;;;;;;;;;;8327059;28;20032;-61
2023/07/08 12:40:42;;;;;;;9.82;4.57;;;;;;;;;;8326288;28;20099;-61
2023/07/08 12:44:44;;;;;;;7.65;4.75;;;;;;;;;;8317839;28;20028;-61
2023/07/08 12:48:44;;;;;;;6.50;4.90;;;;;;;;;;8322486;28;20043;-61
2023/07/08 12:52:45;;;;;;;7.30;4.55;;;;;;;;;;8323478;28;20426;-61
2023/07/08 12:56:46;;;;;;;9.02;4.57;;;;;;;;;;8317244;28;20593;-61
2023/07/08 13:00:46;;;;;;;10.98;4.97;;;;;;;;;;8320558;28;20120;-61
2023/07/08 13:04:48;;;;;;;6.37;4.70;;;;;;;;;;8328476;28;20029;-61
2023/07/08 13:08:49;;;;;;;6.93;4.70;;;;;;;;;;8329527;28;20036;-61
2023/07/08 13:12:53;;;;;;;7.85;5.00;;;;;;;;;;8329159;28;20032;-61
2023/07/08 13:16:53;;;;;;;8.68;4.70;;;;;;;;;;8332995;28;20039;-62
2023/07/08 13:20:54;;;;;;;5.60;4.43;;;;;;;;;;8336986;28;20553;-61
2023/07/08 13:25:01;;;;;;;6.93;4.80;;;;;;;;;;8336050;28;20490;-62
2023/07/08 13:29:05;;;;;;;5.75;4.70;;;;;;;;;;8336403;28;20271;-61
2023/07/08 13:33:15;;;;;;;5.00;4.50;;;;;;;;;;8334121;28;21087;-61
2023/07/08 13:37:15;;;;;;;6.80;4.60;;;;;;;;;;8324411;28;20032;-61
2023/07/08 13:41:22;;;;;;;7.70;4.30;;;;;;;;;;8333300;28;20033;-61
2023/07/08 13:45:27;;;;;;;5.97;4.45;;;;;;;;;;8333939;28;20197;-61
2023/07/08 13:49:27;;;;;;;9.48;4.75;;;;;;;;;;8334667;28;20640;-61
2023/07/08 13:53:40;;;;;;;8.33;4.27;;;;;;;;;;8335399;28;20028;-62
2023/07/08 13:57:40;;;;;;;9.13;5.10;;;;;;;;;;8334526;28;20508;-61
2023/07/08 14:01:42;;;;;;;6.50;4.57;;;;;;;;;;8333078;28;20997;-61
2023/07/08 14:05:43;;;;;;;5.03;4.25;;;;;;;;;;8335311;28;20831;-61
2023/07/08 14:09:44;;;;;;;9.68;4.40;;;;;;;;;;8335335;28;20066;-61
2023/07/08 14:13:44;;;;;;;8.03;4.30;;;;;;;;;;8333310;28;20104;-61
2023/07/08 14:17:44;;;;;;;5.10;4.22;;;;;;;;;;8333921;28;20124;-61
2023/07/08 14:21:45;;;;;;;9.17;4.47;;;;;;;;;;8331270;28;20024;-61
2023/07/08 14:25:45;;;;;;;9.73;4.60;;;;;;;;;;8330195;28;20020;-61
2023/07/08 14:29:47;;;;;;;7.53;4.00;;;;;;;;;;8327359;28;20055;-61
2023/07/08 14:33:47;;;;;;;6.85;4.70;;;;;;;;;;8331145;28;20052;-61
2023/07/08 14:37:48;;;;;;;7.90;4.50;;;;;;;;;;8328683;28;20020;-61
2023/07/08 14:41:49;;;;;;;8.10;4.10;;;;;;;;;;8327502;28;20021;-62
2023/07/08 14:45:52;;;;;;;7.38;4.30;;;;;;;;;;8331774;28;20678;-61
2023/07/08 14:49:52;;;;;;;6.97;4.32;;;;;;;;;;8331617;28;20089;-61
2023/07/08 14:53:52;;;;;;;9.77;4.00;;;;;;;;;;8331891;28;20032;-61
2023/07/08 14:57:53;;;;;;;11.80;4.22;;;;;;;;;;8329640;28;20120;-62
2023/07/08 15:01:54;;;;;;;13.00;4.40;;;;;;;;;;8333224;28;20147;-61
2023/07/08 15:05:55;;;;;;;9.88;4.47;;;;;;;;;;8332182;28;20032;-61
2023/07/08 15:09:55;;;;;;;6.93;4.13;;;;;;;;;;8328769;28;20032;-61
2023/07/08 15:13:55;;;;;;;7.40;4.10;;;;;;;;;;8329985;28;20024;-61
2023/07/08 15:17:56;;;;;;;7.93;4.37;;;;;;;;;;8329602;28;21645;-61
2023/07/08 15:21:56;;;;;;;5.03;3.90;;;;;;;;;;8329858;28;20033;-61
2023/07/08 15:25:57;;;;;;;8.93;4.43;;;;;;;;;;8330052;28;20028;-61
2023/07/08 15:29:57;;;;;;;7.57;4.27;;;;;;;;;;8329535;28;20031;-61
2023/07/08 15:33:57;;;;;;;9.32;4.15;;;;;;;;;;8330696;28;20041;-62
2023/07/08 15:37:59;;;;;;;7.35;3.85;;;;;;;;;;8329931;28;20029;-61
2023/07/08 15:41:59;;;;;;;5.80;3.55;;;;;;;;;;8328332;28;20726;-61
2023/07/08 15:46:01;;;;;;;5.25;3.90;;;;;;;;;;8336266;28;20041;-62
2023/07/08 15:50:01;;;;;;;7.05;3.83;;;;;;;;;;8344127;28;20024;-63
2023/07/08 15:54:01;;;;;;;5.60;3.83;;;;;;;;;;8340387;28;20031;-61
2023/07/08 15:58:20;;;;;;;5.85;3.85;;;;;;;;;;8333476;28;20178;-61
2023/07/08 16:02:25;;;;;;;9.60;3.97;;;;;;;;;;8336021;28;20097;-61
2023/07/08 16:06:26;;;;;;;6.70;3.83;;;;;;;;;;8337840;28;20035;-60
2023/07/08 16:10:26;;;;;;;6.97;4.20;;;;;;;;;;8338908;28;20377;-61
2023/07/08 16:14:26;;;;;;;7.97;4.20;;;;;;;;;;8335716;28;20028;-60
2023/07/08 16:18:27;;;;;;;8.93;4.32;;;;;;;;;;8333150;28;20790;-62
2023/07/08 16:22:27;;;;;;;8.60;3.73;;;;;;;;;;8335492;28;20097;-61
2023/07/08 16:26:29;;;;;;;6.13;3.33;;;;;;;;;;8332299;28;20412;-61
2023/07/08 16:30:29;;;;;;;;;;;;;;;;;;8337547;28;20044;-61
2023/07/08 16:34:29;;;;;;;7.55;4.15;;;;;;;;;;8339251;28;19920;-61
2023/07/08 16:38:29;;;;;;;5.85;3.70;;;;;;;;;;8336442;28;20508;-62
2023/07/08 16:42:30;;;;;;;4.83;3.80;;;;;;;;;;8335743;28;20036;-62
2023/07/08 16:46:30;;;;;;;7.38;3.33;;;;;;;;;;8339634;28;20402;-62
2023/07/08 16:50:30;;;;;;;7.20;3.03;;;;;;;;;;8340703;28;20465;-62
2023/07/08 16:54:30;;;;;;;12.10;2.70;;;;;;;;;;8347375;28;20029;-63
2023/07/08 16:58:30;;;;;;;10.05;2.40;;;;;;;;;;8353403;28;20031;-63
2023/07/08 17:02:31;;;;;;;5.50;2.53;;;;;;;;;;8356707;28;20040;-61
2023/07/08 17:06:32;;;;;;;6.07;2.63;;;;;;;;;;8362109;28;20494;-59
2023/07/08 17:10:32;;;;;;;4.07;2.50;;;;;;;;;;8362666;28;20031;-61
2023/07/08 17:14:33;;;;;;;4.93;2.27;;;;;;;;;;8344163;28;20032;-61
2023/07/08 17:18:33;;;;;;;4.72;1.83;;;;;;;;;;8357211;28;20822;-60
2023/07/08 17:22:33;;;;;;;3.50;1.90;;;;;;;;;;8361075;28;20484;-61
2023/07/08 17:26:33;;;;;;;2.75;1.90;;;;;;;;;;8350227;28;20107;-63
2023/07/08 17:30:34;;;;;;;5.70;2.33;;;;;;;;;;8357017;28;20187;-62
2023/07/08 17:34:35;;;;;;;4.82;2.35;;;;;;;;;;8360090;28;20021;-61
2023/07/08 17:38:49;;;;;;;9.55;3.05;;;;;;;;;;8346053;28;20115;-60
2023/07/08 17:42:49;;;;;;;6.97;3.10;;;;;;;;;;8337930;28;20032;-60
2023/07/08 17:46:50;;;;;;;9.60;3.28;;;;;;;;;;8337382;28;20128;-60
2023/07/08 17:50:50;;;;;;;10.30;3.10;;;;;;;;;;8338872;28;20032;-60
2023/07/08 17:54:51;;;;;;;7.18;2.92;;;;;;;;;;8337998;28;20031;-60
2023/07/08 17:58:52;;;;;;;6.60;3.30;;;;;;;;;;8338537;28;20025;-60
2023/07/08 18:02:54;;;;;;;5.97;3.20;;;;;;;;;;8339280;28;20033;-61
2023/07/08 18:06:54;;;;;;;9.68;4.50;;;;;;;;;;8339816;28;20048;-61
2023/07/08 18:10:54;;;;;;;7.33;3.70;;;;;;;;;;8336387;28;20040;-61
2023/07/08 18:14:54;;;;;;;5.75;3.00;;;;;;;;;;8336798;28;20327;-61
2023/07/08 18:18:54;;;;;;;6.05;3.42;;;;;;;;;;8333586;28;20051;-60
2023/07/08 18:22:55;;;;;;;4.28;2.72;;;;;;;;;;8325916;28;20333;-60
2023/07/08 18:26:55;;;;;;;6.55;3.22;;;;;;;;;;8322591;28;20338;-60
2023/07/08 18:30:55;;;;;;;5.55;3.13;;;;;;;;;;8325974;28;20056;-60
2023/07/08 18:34:55;;;;;;;10.17;3.13;;;;;;;;;;8327180;28;20021;-60
2023/07/08 18:38:56;;;;;;;5.60;3.63;;;;;;;;;;8328188;28;21003;-60
2023/07/08 18:43:06;;;;;;;4.97;2.85;;;;;;;;;;8328220;28;20533;-60
2023/07/08 18:47:09;;;;;;;4.00;2.88;;;;;;;;;;8326993;28;20349;-60
2023/07/08 18:51:17;;;;;;;4.32;2.65;;;;;;;;;;8330502;28;20527;-60
2023/07/08 18:55:18;;;;;;;3.42;2.22;;;;;;;;;;8334796;28;20036;-60
2023/07/08 18:59:18;;;;;;;4.22;2.25;;;;;;;;;;8329344;28;20620;-60
2023/07/08 19:03:23;;;;;;;4.00;2.80;;;;;;;;;;8331261;28;20994;-60
2023/07/08 19:07:23;;;;;;;4.00;2.50;;;;;;;;;;8330008;28;20117;-60
2023/07/08 19:11:25;;;;;;;3.03;2.50;;;;;;;;;;8328814;28;20032;-60
2023/07/08 19:15:27;;;;;;;5.40;2.70;;;;;;;;;;8326960;28;20052;-60
2023/07/08 19:19:27;;;;;;;5.60;2.92;;;;;;;;;;8327277;28;20146;-60
2023/07/08 19:23:28;;;;;;;4.43;2.60;;;;;;;;;;8330643;28;20021;-60
2023/07/08 19:27:28;;;;;;;2.88;2.50;;;;;;;;;;8329402;28;20063;-60
2023/07/08 19:31:31;;;;;;;3.13;2.67;;;;;;;;;;8325177;28;20040;-60
2023/07/08 19:35:39;;;;;;;4.60;2.60;;;;;;;;;;8327970;28;20683;-61
2023/07/08 19:39:40;;;;;;;5.07;2.38;;;;;;;;;;8327636;28;20016;-60
2023/07/08 19:43:40;;;;;;;4.57;2.60;;;;;;;;;;8347983;23;20159;-70
2023/07/08 19:47:42;;;;;;;3.20;2.45;;;;;;;;;;8312889;28;20152;-69
2023/07/08 19:51:42;;;;;;;4.85;2.83;;;;;;;;;;8312518;28;20918;-70
2023/07/08 19:55:42;;;;;;;3.00;2.30;;;;;;;;;;8322868;28;20078;-70
2023/07/08 19:59:42;;;;;;;2.85;2.33;;;;;;;;;;8320910;28;20118;-70
2023/07/08 20:03:42;;;;;;;3.63;2.60;;;;;;;;;;8318167;28;20037;-70
2023/07/08 20:07:43;;;;;;;3.43;2.50;;;;;;;;;;8318359;28;20032;-70
2023/07/08 20:11:43;;;;;;;5.03;2.55;;;;;;;;;;8315817;28;21136;-70
2023/07/08 20:15:43;;;;;;;4.00;2.60;;;;;;;;;;8322676;28;20040;-70
2023/07/08 20:19:44;;;;;;;4.30;3.00;;;;;;;;;;8319518;28;20032;-70
2023/07/08 20:23:44;;;;;;;5.32;3.17;;;;;;;;;;8320958;28;20099;-70
2023/07/08 20:27:48;;;;;;;2.90;2.60;;;;;;;;;;8318561;28;20020;-70
2023/07/08 20:31:48;;;;;;;3.67;2.58;;;;;;;;;;8319700;28;20025;-70
2023/07/08 20:35:49;;;;;;;4.13;3.00;;;;;;;;;;8317257;28;20024;-70
2023/07/08 20:39:50;;;;;;;5.30;3.00;;;;;;;;;;8320057;28;20480;-70
2023/07/08 20:43:50;;;;;;;3.25;2.70;;;;;;;;;;8282653;28;1071151;-70
2023/07/08 20:47:50;;;;;;;5.43;2.90;;;;;;;;;;8322047;28;20845;-71
2023/07/08 20:51:50;;;;;;;4.10;2.70;;;;;;;;;;8321976;28;20028;-70
2023/07/08 20:55:52;;;;;;;3.80;2.67;;;;;;;;;;8319011;28;20889;-70
2023/07/08 20:59:52;;;;;;;4.38;2.58;;;;;;;;;;8316809;28;20021;-70
2023/07/08 21:03:52;;;;;;;4.22;2.85;;;;;;;;;;8318867;28;20032;-70
2023/07/08 21:07:56;;;;;;;5.10;2.80;;;;;;;;;;8309883;28;20020;-70
2023/07/08 21:11:56;;;;;;;6.45;3.38;;;;;;;;;;8314409;28;20511;-70
2023/07/08 21:15:57;;;;;;;5.25;2.53;;;;;;;;;;8320245;28;20132;-70
2023/07/08 21:19:57;;;;;;;4.97;3.00;;;;;;;;;;8314814;28;20037;-70
2023/07/08 21:23:58;;;;;;;5.60;2.70;;;;;;;;;;8321202;28;20033;-70
2023/07/08 21:27:58;;;;;;;4.20;2.70;;;;;;;;;;8317707;28;20421;-70
2023/07/08 21:31:58;;;;;;;3.90;2.70;;;;;;;;;;8316135;28;20029;-70
2023/07/08 21:35:59;;;;;;;6.93;2.85;;;;;;;;;;8310822;28;20103;-70
2023/07/08 21:39:59;;;;;;;5.55;2.70;;;;;;;;;;8322458;28;20033;-70
2023/07/08 21:44:00;;;;;;;5.60;2.75;;;;;;;;;;8323418;28;20021;-70
2023/07/08 21:48:00;;;;;;;5.63;2.60;;;;;;;;;;8327009;28;20039;-71
2023/07/08 21:52:00;;;;;;;4.00;3.00;;;;;;;;;;8326742;28;20033;-71
2023/07/08 21:56:01;;;;;;;3.05;2.70;;;;;;;;;;8325168;28;20021;-71
2023/07/08 22:00:01;;;;;;;3.38;2.70;;;;;;;;;;8310093;28;20780;-71
2023/07/08 22:04:01;;;;;;;5.03;2.70;;;;;;;;;;8325958;28;20659;-71
2023/07/08 22:08:03;;;;;;;4.70;2.85;;;;;;;;;;8325072;28;20024;-71
2023/07/08 22:12:07;;;;;;;5.00;2.75;;;;;;;;;;8307167;28;20052;-71
2023/07/08 22:16:12;;;;;;;4.97;3.05;;;;;;;;;;8322704;28;20041;-71
2023/07/08 22:20:13;;;;;;;7.15;3.00;;;;;;;;;;8324869;28;20040;-71
2023/07/08 22:24:13;;;;;;;5.10;2.92;;;;;;;;;;8324716;28;20039;-70
2023/07/08 22:28:14;;;;;;;6.07;3.00;;;;;;;;;;8323369;28;20031;-71
2023/07/08 22:32:14;;;;;;;5.30;2.75;;;;;;;;;;8326294;28;20041;-71
2023/07/08 22:36:14;;;;;;;4.97;2.75;;;;;;;;;;8324778;28;20078;-71
2023/07/08 22:40:14;;;;;;;6.95;3.17;;;;;;;;;;8307351;28;20102;-71
2023/07/08 22:44:16;;;;;;;3.85;2.80;;;;;;;;;;8325402;28;20565;-71
2023/07/08 22:48:16;;;;;;;4.30;2.72;;;;;;;;;;8322241;28;20033;-71
2023/07/08 22:52:22;;;;;;;3.70;2.55;;;;;;;;;;8324123;28;20531;-71
2023/07/08 22:56:23;;;;;;;4.20;2.80;;;;;;;;;;8323768;28;21025;-71
2023/07/08 23:00:24;;;;;;;5.88;2.60;;;;;;;;;;8322959;28;20049;-71
2023/07/08 23:04:24;;;;;;;6.00;2.90;;;;;;;;;;8304911;28;20387;-71
2023/07/08 23:08:24;;;;;;;4.65;2.67;;;;;;;;;;8321544;28;20032;-71
2023/07/08 23:12:24;;;;;;;7.88;2.90;;;;;;;;;;8324765;28;20040;-71
2023/07/08 23:16:29;;;;;;;5.45;3.00;;;;;;;;;;8319140;28;20029;-71
2023/07/08 23:20:29;;;;;;;6.57;3.35;;;;;;;;;;8322138;28;20052;-71
2023/07/08 23:24:29;;;;;;;7.85;3.30;;;;;;;;;;8322858;28;20035;-71
2023/07/08 23:28:30;;;;;;;4.95;3.17;;;;;;;;;;8324737;28;20780;-72
2023/07/08 23:32:30;;;;;;;2.92;2.58;;;;;;;;;;8322562;28;20993;-71
2023/07/08 23:36:30;;;;;;;6.50;3.05;;;;;;;;;;8322153;28;20618;-71
2023/07/08 23:40:30;;;;;;;3.97;2.95;;;;;;;;;;8320869;28;20172;-71
2023/07/08 23:44:30;;;;;;;7.18;3.20;;;;;;;;;;8311294;28;20140;-71
2023/07/08 23:48:31;;;;;;;3.45;2.70;;;;;;;;;;8321307;28;20152;-71
2023/07/08 23:52:31;;;;;;;4.47;3.00;;;;;;;;;;8321136;28;20103;-71
2023/07/08 23:56:31;;;;;;;3.17;2.67;;;;;;;;;;8318449;28;20032;-71
